Time;durP1;ratioP1;P1;durP2;ratioP2;P2;SDS_P1;SDS_P2;PMS_P1;PMS_P2;Temp;Humidity;BMP_temperature;BMP_pressure;BME280_temperature;BME280_humidity;BME280_pressure;Samples;Min_cycle;Max_cycle;Signal;HPM_P1;HPM_P2
2023/07/08 00:02:10;;;;;;;;;23.00;19.33;;;;;;;;5013386;28;45446;-81
2023/07/08 00:04:36;;;;;;;;;21.33;15.67;;;;;;;;4993603;28;45471;-83
2023/07/08 00:07:01;;;;;;;;;21.33;19.00;;;;;;;;4997085;28;45821;-82
2023/07/08 00:09:26;;;;;;;;;19.00;17.67;;;;;;;;4974190;28;47702;-83
2023/07/08 00:11:52;;;;;;;;;23.00;19.00;;;;;;;;4973161;28;45991;-83
2023/07/08 00:14:17;;;;;;;;;22.33;20.67;;;;;;;;4997796;28;45355;-82
2023/07/08 00:16:42;;;;;;;;;17.67;16.67;;;;;;;;4977070;28;45881;-83
2023/07/08 00:19:09;;;;;;;;;20.00;17.33;;;;;;;;4997788;28;45541;-82
2023/07/08 00:21:34;;;;;;;;;20.67;19.67;;;;;;;;4996672;28;45712;-85
2023/07/08 00:23:59;;;;;;;;;22.00;20.00;;;;;;;;4978935;28;45333;-82
2023/07/08 00:26:26;;;;;;;;;25.00;20.00;;;;;;;;4998097;28;45400;-84
2023/07/08 00:28:51;;;;;;;;;20.33;17.00;;;;;;;;4984265;28;47155;-82
2023/07/08 00:31:16;;;;;;;;;19.33;18.00;;;;;;;;4978445;28;45388;-81
2023/07/08 00:33:42;;;;;;;;;22.00;19.00;;;;;;;;4997101;28;45488;-82
2023/07/08 00:36:11;;;;;;;;;20.00;17.67;;;;;;;;4994257;28;45625;-81
2023/07/08 00:38:36;;;;;;;;;22.67;20.67;;;;;;;;4994485;28;45912;-81
2023/07/08 00:41:01;;;;;;;;;24.33;22.67;;;;;;;;4994311;28;45723;-83
2023/07/08 00:43:35;;;;;;;;;27.00;25.00;;;;;;;;5010600;28;45724;-83
2023/07/08 00:46:23;;;;;;;;;23.33;20.00;;;;;;;;4992443;28;45696;-83
2023/07/08 00:48:49;;;;;;;;;20.33;20.33;;;;;;;;4977981;28;47035;-82
2023/07/08 00:51:16;;;;;;;;;27.00;23.33;;;;;;;;4996363;28;45361;-81
2023/07/08 00:53:42;;;;;;;;;23.67;21.33;;;;;;;;4997967;28;45506;-83
2023/07/08 00:56:10;;;;;;;;;30.67;23.00;;;;;;;;4995772;28;45496;-82
2023/07/08 00:58:59;;;;;;;;;23.67;19.67;;;;;;;;5018727;28;47387;-82
2023/07/08 01:01:24;;;;;;;;;27.67;23.33;;;;;;;;4998352;28;45485;-82
2023/07/08 01:03:53;;;;;;;;;29.67;25.00;;;;;;;;5007037;28;45844;-82
2023/07/08 01:06:19;;;;;;;;;23.33;21.67;;;;;;;;5006327;28;45575;-82
2023/07/08 01:08:45;;;;;;;;;22.33;20.33;;;;;;;;4988992;28;45825;-81
2023/07/08 01:11:11;;;;;;;;;27.33;22.00;;;;;;;;5022408;28;45542;-81
2023/07/08 01:13:39;;;;;;;;;29.33;24.33;;;;;;;;5018238;28;45550;-83
2023/07/08 01:16:05;;;;;;;;;28.33;25.33;;;;;;;;5004221;28;45692;-83
2023/07/08 01:18:30;;;;;;;;;31.50;26.00;;;;;;;;4987455;28;48222;-83
2023/07/08 01:21:00;;;;;;;;;26.33;23.67;;;;;;;;4999960;28;45752;-82
2023/07/08 01:23:25;;;;;;;;;28.33;23.67;;;;;;;;4990496;28;45713;-82
2023/07/08 01:25:50;;;;;;;;;22.67;21.67;;;;;;;;4977405;28;46160;-83
2023/07/08 01:28:16;;;;;;;;;23.33;21.67;;;;;;;;4981799;28;47092;-83
2023/07/08 01:30:43;;;;;;;;;19.67;19.33;;;;;;;;4993988;28;45915;-82
2023/07/08 01:33:15;;;;;;;;;19.33;19.33;;;;;;;;4973456;28;45480;-83
2023/07/08 01:35:41;;;;;;;;;28.67;21.00;;;;;;;;4973598;28;46200;-84
2023/07/08 01:38:09;;;;;;;;;21.67;19.00;;;;;;;;4979437;28;45870;-83
2023/07/08 01:40:35;;;;;;;;;29.00;20.67;;;;;;;;4995094;28;45433;-83
2023/07/08 01:43:01;;;;;;;;;22.00;17.67;;;;;;;;4974238;28;45721;-82
2023/07/08 01:45:30;;;;;;;;;18.67;17.00;;;;;;;;4985819;28;45697;-82
2023/07/08 01:48:09;;;;;;;;;19.67;16.67;;;;;;;;4970790;28;47444;-82
2023/07/08 01:50:36;;;;;;;;;17.00;12.67;;;;;;;;4997399;28;45703;-83
2023/07/08 01:53:05;;;;;;;;;19.33;17.33;;;;;;;;5006039;28;45508;-82
2023/07/08 01:55:30;;;;;;;;;19.33;18.00;;;;;;;;4995336;28;46124;-82
2023/07/08 01:57:55;;;;;;;;;21.00;16.33;;;;;;;;4985410;28;47598;-84
2023/07/08 02:00:21;;;;;;;;;21.67;18.33;;;;;;;;4978215;28;45393;-81
2023/07/08 02:02:47;;;;;;;;;14.00;13.00;;;;;;;;5008635;28;45459;-83
2023/07/08 02:05:12;;;;;;;;;18.00;17.67;;;;;;;;5005919;28;45888;-83
2023/07/08 02:07:38;;;;;;;;;7.67;6.67;;;;;;;;4975065;28;46944;-82
2023/07/08 02:10:03;;;;;;;;;17.33;15.33;;;;;;;;4983743;28;45675;-81
2023/07/08 02:12:29;;;;;;;;;11.00;10.00;;;;;;;;4994236;28;45530;-81
2023/07/08 02:14:54;;;;;;;;;10.00;8.00;;;;;;;;4994979;28;45573;-82
2023/07/08 02:17:19;;;;;;;;;8.67;8.67;;;;;;;;4976965;28;48198;-81
2023/07/08 02:19:44;;;;;;;;;11.00;9.33;;;;;;;;5004414;28;45379;-81
2023/07/08 02:22:10;;;;;;;;;9.00;6.67;;;;;;;;4977534;28;45479;-84
2023/07/08 02:24:35;;;;;;;;;7.00;5.33;;;;;;;;4993520;28;45440;-82
2023/07/08 02:27:00;;;;;;;;;7.00;5.67;;;;;;;;4999144;28;45445;-83
2023/07/08 02:29:26;;;;;;;;;4.67;4.67;;;;;;;;4988617;28;45772;-82
2023/07/08 02:31:51;;;;;;;;;6.00;6.00;;;;;;;;4997807;28;45558;-81
2023/07/08 02:34:17;;;;;;;;;6.00;6.00;;;;;;;;5000928;28;46013;-82
2023/07/08 02:36:43;;;;;;;;;8.67;5.00;;;;;;;;4992285;28;45672;-83
2023/07/08 02:39:09;;;;;;;;;4.00;4.00;;;;;;;;4993784;28;45920;-81
2023/07/08 02:41:34;;;;;;;;;0.00;0.00;;;;;;;;4994528;28;45494;-82
2023/07/08 02:44:00;;;;;;;;;4.25;4.25;;;;;;;;4999839;28;45424;-81
2023/07/08 02:46:25;;;;;;;;;2.25;2.25;;;;;;;;4990667;28;45779;-82
2023/07/08 02:48:50;;;;;;;;;4.00;3.00;;;;;;;;4999806;28;45702;-82
2023/07/08 02:51:16;;;;;;;;;2.50;2.50;;;;;;;;4998779;28;45671;-82
2023/07/08 02:53:41;;;;;;;;;3.00;3.00;;;;;;;;4997192;28;46081;-82
2023/07/08 02:56:06;;;;;;;;;4.75;2.50;;;;;;;;5006407;28;45900;-81
2023/07/08 02:58:31;;;;;;;;;1.50;0.00;;;;;;;;4993540;28;45588;-82
2023/07/08 03:01:00;;;;;;;;;2.75;2.75;;;;;;;;4994598;28;45933;-81
2023/07/08 03:03:27;;;;;;;;;2.25;2.25;;;;;;;;4993278;28;45416;-83
2023/07/08 03:05:54;;;;;;;;;3.00;2.00;;;;;;;;4973936;28;48232;-81
2023/07/08 03:08:19;;;;;;;;;2.00;2.00;;;;;;;;4991555;28;45947;-82
2023/07/08 03:10:47;;;;;;;;;2.25;1.50;;;;;;;;4994223;28;45757;-83
2023/07/08 03:13:12;;;;;;;;;3.50;2.50;;;;;;;;4992737;28;45506;-83
2023/07/08 03:15:37;;;;;;;;;2.00;2.00;;;;;;;;4996533;28;45431;-81
2023/07/08 03:18:03;;;;;;;;;0.75;0.75;;;;;;;;5000615;28;45909;-81
2023/07/08 03:20:32;;;;;;;;;3.50;1.50;;;;;;;;4981369;28;45443;-82
2023/07/08 03:22:57;;;;;;;;;2.00;2.00;;;;;;;;4995693;28;46028;-81
2023/07/08 03:25:22;;;;;;;;;3.50;2.00;;;;;;;;4975445;28;46533;-82
2023/07/08 03:27:48;;;;;;;;;1.75;1.75;;;;;;;;4992963;28;45819;-80
2023/07/08 03:30:13;;;;;;;;;1.50;1.50;;;;;;;;5000144;28;45611;-84
2023/07/08 03:32:38;;;;;;;;;3.50;1.00;;;;;;;;5003792;28;45708;-81
2023/07/08 03:35:03;;;;;;;;;1.75;1.00;;;;;;;;4999552;28;47061;-82
2023/07/08 03:37:29;;;;;;;;;2.50;2.00;;;;;;;;4998655;28;45846;-83
2023/07/08 03:39:54;;;;;;;;;2.50;1.00;;;;;;;;4996676;28;45957;-82
2023/07/08 03:42:19;;;;;;;;;3.00;2.00;;;;;;;;5009108;28;45392;-82
2023/07/08 03:44:44;;;;;;;;;0.00;0.00;;;;;;;;5008139;28;45442;-81
2023/07/08 03:47:09;;;;;;;;;5.50;3.75;;;;;;;;4995136;28;45681;-83
2023/07/08 03:49:35;;;;;;;;;0.25;0.25;;;;;;;;5011371;28;44851;-82
2023/07/08 03:52:00;;;;;;;;;4.00;2.00;;;;;;;;4998376;28;45475;-83
2023/07/08 03:54:25;;;;;;;;;2.25;1.25;;;;;;;;4997841;28;45732;-81
2023/07/08 03:56:50;;;;;;;;;2.00;2.00;;;;;;;;4997905;28;45705;-82
2023/07/08 03:59:16;;;;;;;;;4.33;4.33;;;;;;;;4997911;28;46012;-82
2023/07/08 04:01:41;;;;;;;;;6.67;6.67;;;;;;;;4997524;28;45466;-80
2023/07/08 04:04:08;;;;;;;;;4.67;3.33;;;;;;;;4977643;28;47378;-82
2023/07/08 04:06:34;;;;;;;;;4.00;2.75;;;;;;;;4996707;28;45438;-81
2023/07/08 04:08:59;;;;;;;;;3.00;3.00;;;;;;;;5013242;28;45402;-83
2023/07/08 04:11:24;;;;;;;;;4.75;2.50;;;;;;;;4985505;28;45893;-79
2023/07/08 04:13:50;;;;;;;;;5.67;5.67;;;;;;;;4993418;28;45866;-80
2023/07/08 04:16:28;;;;;;;;;5.33;5.33;;;;;;;;5003376;28;45864;-82
2023/07/08 04:18:53;;;;;;;;;40.50;32.00;;;;;;;;4996892;28;45359;-83
2023/07/08 04:21:19;;;;;;;;;8.00;8.00;;;;;;;;4984696;28;45918;-82
2023/07/08 04:23:44;;;;;;;;;3.00;3.00;;;;;;;;4996838;28;48099;-77
2023/07/08 04:26:09;;;;;;;;;2.50;2.00;;;;;;;;5006513;28;45730;-77
2023/07/08 04:28:35;;;;;;;;;2.67;2.00;;;;;;;;5002496;28;45588;-76
2023/07/08 04:31:00;;;;;;;;;2.25;2.00;;;;;;;;4999017;28;45464;-76
2023/07/08 04:33:26;;;;;;;;;1.00;1.00;;;;;;;;4994597;28;45798;-76
2023/07/08 04:35:51;;;;;;;;;2.00;2.00;;;;;;;;4995807;28;45680;-76
2023/07/08 04:38:18;;;;;;;;;1.75;1.75;;;;;;;;5002542;28;45442;-76
2023/07/08 04:40:43;;;;;;;;;2.50;2.00;;;;;;;;4983433;28;45467;-76
2023/07/08 04:43:12;;;;;;;;;2.75;2.00;;;;;;;;4973228;28;46871;-77
2023/07/08 04:45:38;;;;;;;;;2.00;2.00;;;;;;;;5006530;28;45458;-77
2023/07/08 04:48:12;;;;;;;;;2.00;2.00;;;;;;;;5016427;28;45723;-76
2023/07/08 04:50:37;;;;;;;;;2.25;1.25;;;;;;;;4995678;28;46566;-76
2023/07/08 04:53:02;;;;;;;;;4.50;2.25;;;;;;;;4998920;28;46046;-76
2023/07/08 04:55:28;;;;;;;;;2.00;1.00;;;;;;;;4975647;28;45930;-77
2023/07/08 04:57:53;;;;;;;;;2.75;2.00;;;;;;;;4999742;28;45899;-76
2023/07/08 05:00:19;;;;;;;;;2.50;2.00;;;;;;;;4995292;28;45720;-77
2023/07/08 05:02:44;;;;;;;;;2.25;2.25;;;;;;;;5001455;28;45787;-77
2023/07/08 05:05:10;;;;;;;;;1.25;1.25;;;;;;;;4998791;28;45747;-76
2023/07/08 05:07:35;;;;;;;;;1.00;1.00;;;;;;;;4988938;28;45422;-78
2023/07/08 05:10:00;;;;;;;;;3.00;2.00;;;;;;;;4974689;28;47020;-75
2023/07/08 05:12:26;;;;;;;;;3.00;3.00;;;;;;;;4975237;28;47246;-77
2023/07/08 05:14:51;;;;;;;;;2.50;2.00;;;;;;;;4990222;28;45510;-74
2023/07/08 05:17:17;;;;;;;;;1.00;1.00;;;;;;;;4983902;28;45505;-77
2023/07/08 05:19:44;;;;;;;;;4.50;2.00;;;;;;;;5008157;28;46533;-83
2023/07/08 05:22:09;;;;;;;;;2.00;2.00;;;;;;;;4996185;28;45612;-83
2023/07/08 05:24:34;;;;;;;;;2.00;2.00;;;;;;;;4985510;28;45717;-74
2023/07/08 05:27:00;;;;;;;;;5.00;2.00;;;;;;;;4977977;28;45429;-82
2023/07/08 05:29:25;;;;;;;;;3.75;2.00;;;;;;;;5007619;28;46922;-83
2023/07/08 05:31:50;;;;;;;;;3.50;3.00;;;;;;;;4984638;28;48186;-83
2023/07/08 05:34:16;;;;;;;;;2.00;2.00;;;;;;;;5021978;28;45346;-82
2023/07/08 05:36:41;;;;;;;;;3.00;2.00;;;;;;;;4985844;28;46148;-84
2023/07/08 05:39:07;;;;;;;;;2.75;1.75;;;;;;;;4999456;28;46115;-83
2023/07/08 05:41:32;;;;;;;;;2.00;1.50;;;;;;;;4995033;28;46961;-84
2023/07/08 05:43:57;;;;;;;;;1.25;1.25;;;;;;;;4999551;28;45770;-83
2023/07/08 05:46:22;;;;;;;;;1.75;1.75;;;;;;;;4998607;28;45769;-84
2023/07/08 05:48:48;;;;;;;;;1.75;1.75;;;;;;;;5010002;28;47072;-83
2023/07/08 05:51:14;;;;;;;;;3.50;3.50;;;;;;;;4998688;28;47315;-82
2023/07/08 05:53:39;;;;;;;;;1.75;1.75;;;;;;;;5010278;28;45842;-82
2023/07/08 05:56:04;;;;;;;;;1.25;1.25;;;;;;;;5008398;28;45711;-84
2023/07/08 05:58:29;;;;;;;;;2.00;2.00;;;;;;;;5009732;28;44999;-82
2023/07/08 06:00:56;;;;;;;;;4.25;2.00;;;;;;;;4981366;28;46850;-83
2023/07/08 06:03:21;;;;;;;;;2.00;2.00;;;;;;;;4983812;28;45784;-82
2023/07/08 06:05:46;;;;;;;;;5.00;3.00;;;;;;;;4984895;28;45370;-82
2023/07/08 06:08:11;;;;;;;;;1.50;1.50;;;;;;;;5004335;28;45857;-83
2023/07/08 06:10:41;;;;;;;;;3.50;2.25;;;;;;;;5008667;28;48408;-81
2023/07/08 06:13:06;;;;;;;;;1.50;1.50;;;;;;;;4983767;28;45931;-83
2023/07/08 06:15:31;;;;;;;;;2.00;1.50;;;;;;;;5000524;28;45805;-81
2023/07/08 06:18:00;;;;;;;;;2.00;2.00;;;;;;;;4992356;28;45736;-81
2023/07/08 06:20:26;;;;;;;;;2.00;2.00;;;;;;;;4989309;28;46143;-80
2023/07/08 06:22:51;;;;;;;;;4.00;2.00;;;;;;;;4996021;28;45607;-82
2023/07/08 06:25:23;;;;;;;;;4.75;4.00;;;;;;;;5000604;28;45477;-83
2023/07/08 06:27:48;;;;;;;;;2.00;2.00;;;;;;;;4981729;28;46183;-82
2023/07/08 06:30:14;;;;;;;;;2.00;2.00;;;;;;;;4997309;28;46123;-84
2023/07/08 06:32:39;;;;;;;;;1.25;1.25;;;;;;;;5000366;28;45456;-81
2023/07/08 06:35:05;;;;;;;;;4.00;4.00;;;;;;;;4997823;28;45791;-83
2023/07/08 06:37:30;;;;;;;;;2.00;2.00;;;;;;;;4994355;28;45930;-86
2023/07/08 06:39:55;;;;;;;;;1.00;1.00;;;;;;;;4996691;28;45956;-83
2023/07/08 06:42:21;;;;;;;;;4.75;3.00;;;;;;;;5005313;28;45507;-82
2023/07/08 06:44:50;;;;;;;;;2.25;2.25;;;;;;;;5010985;28;45868;-87
2023/07/08 06:47:19;;;;;;;;;3.25;3.00;;;;;;;;4998278;28;45957;-85
2023/07/08 06:49:45;;;;;;;;;3.25;2.00;;;;;;;;4999011;28;45807;-84
2023/07/08 06:52:11;;;;;;;;;5.50;3.25;;;;;;;;5000780;28;45481;-88
2023/07/08 06:54:36;;;;;;;;;3.25;2.75;;;;;;;;4979066;28;45861;-84
2023/07/08 06:57:02;;;;;;;;;4.00;2.75;;;;;;;;5003649;28;45402;-84
2023/07/08 06:59:28;;;;;;;;;1.75;1.75;;;;;;;;5016232;28;47356;-84
2023/07/08 07:01:53;;;;;;;;;2.25;2.25;;;;;;;;4988462;28;45518;-84
2023/07/08 07:04:19;;;;;;;;;5.00;1.50;;;;;;;;5002394;28;45967;-83
2023/07/08 07:06:44;;;;;;;;;2.25;2.25;;;;;;;;5003969;28;46036;-83
2023/07/08 07:09:09;;;;;;;;;6.50;3.00;;;;;;;;5008927;28;47220;-83
2023/07/08 07:11:35;;;;;;;;;2.25;1.50;;;;;;;;4978141;28;46249;-84
2023/07/08 07:14:02;;;;;;;;;2.00;2.00;;;;;;;;4981636;28;45537;-84
2023/07/08 07:16:27;;;;;;;;;2.75;1.50;;;;;;;;4976761;28;46949;-82
2023/07/08 07:18:52;;;;;;;;;2.00;2.00;;;;;;;;4985659;28;45757;-80
2023/07/08 07:21:18;;;;;;;;;2.00;2.00;;;;;;;;5002133;28;45451;-81
2023/07/08 07:23:43;;;;;;;;;2.50;2.50;;;;;;;;5011437;28;45316;-81
2023/07/08 07:26:08;;;;;;;;;3.75;1.25;;;;;;;;5019968;28;45669;-80
2023/07/08 07:28:34;;;;;;;;;1.00;1.00;;;;;;;;4989888;28;45818;-81
2023/07/08 07:31:01;;;;;;;;;1.00;1.00;;;;;;;;4975915;28;46298;-82
2023/07/08 07:33:27;;;;;;;;;3.00;2.00;;;;;;;;4994632;28;45463;-83
2023/07/08 07:35:52;;;;;;;;;2.50;2.00;;;;;;;;4993908;28;45821;-81
2023/07/08 07:38:17;;;;;;;;;3.50;1.50;;;;;;;;4976270;28;48088;-84
2023/07/08 07:40:43;;;;;;;;;1.25;1.25;;;;;;;;4991298;28;45410;-83
2023/07/08 07:43:09;;;;;;;;;1.75;1.75;;;;;;;;5000081;28;45819;-84
2023/07/08 07:45:34;;;;;;;;;3.75;2.25;;;;;;;;4986329;28;45815;-82
2023/07/08 07:47:59;;;;;;;;;2.00;1.00;;;;;;;;4986401;28;47143;-81
2023/07/08 07:50:25;;;;;;;;;2.25;2.25;;;;;;;;5005125;28;45770;-81
2023/07/08 07:52:52;;;;;;;;;2.00;2.00;;;;;;;;4977985;28;45824;-82
2023/07/08 07:55:18;;;;;;;;;1.00;1.00;;;;;;;;4982879;28;46885;-81
2023/07/08 07:57:45;;;;;;;;;1.75;1.75;;;;;;;;4983986;28;47101;-82
2023/07/08 08:00:11;;;;;;;;;2.50;1.50;;;;;;;;4988737;28;45461;-81
2023/07/08 08:02:37;;;;;;;;;4.25;3.00;;;;;;;;4999360;28;45534;-81
2023/07/08 08:05:02;;;;;;;;;5.50;3.00;;;;;;;;4979054;28;45893;-79
2023/07/08 08:07:27;;;;;;;;;1.00;1.00;;;;;;;;4994052;28;45681;-81
2023/07/08 08:09:52;;;;;;;;;3.25;2.75;;;;;;;;4995350;28;45822;-82
2023/07/08 08:12:18;;;;;;;;;2.00;2.00;;;;;;;;4984230;28;45873;-82
2023/07/08 08:14:43;;;;;;;;;2.00;2.00;;;;;;;;4986744;28;46057;-82
2023/07/08 08:17:08;;;;;;;;;9.00;6.33;;;;;;;;5008572;28;47010;-80
2023/07/08 08:19:34;;;;;;;;;2.00;2.00;;;;;;;;4996025;28;46426;-82
2023/07/08 08:21:59;;;;;;;;;9.67;9.00;;;;;;;;4993396;28;45729;-82
2023/07/08 08:24:24;;;;;;;;;3.67;3.67;;;;;;;;4996911;28;45431;-83
2023/07/08 08:26:49;;;;;;;;;5.00;5.00;;;;;;;;4993558;28;46838;-81
2023/07/08 08:29:15;;;;;;;;;2.67;2.67;;;;;;;;4986581;28;45415;-84
2023/07/08 08:31:40;;;;;;;;;6.33;5.33;;;;;;;;5007813;28;45514;-83
2023/07/08 08:34:05;;;;;;;;;4.33;4.33;;;;;;;;5004014;28;45512;-83
2023/07/08 08:36:30;;;;;;;;;4.00;3.33;;;;;;;;5000867;28;45983;-83
2023/07/08 08:38:56;;;;;;;;;5.00;2.00;;;;;;;;4993447;28;45464;-80
2023/07/08 08:41:29;;;;;;;;;2.00;2.00;;;;;;;;5000732;28;45413;-82
2023/07/08 08:43:54;;;;;;;;;2.00;2.00;;;;;;;;4987250;28;46326;-82
2023/07/08 08:46:22;;;;;;;;;2.33;2.33;;;;;;;;4988180;28;46898;-83
2023/07/08 08:49:02;;;;;;;;;2.33;2.33;;;;;;;;4997641;28;45912;-81
2023/07/08 08:51:31;;;;;;;;;2.67;1.33;;;;;;;;4987141;28;45736;-80
2023/07/08 08:53:57;;;;;;;;;2.33;2.00;;;;;;;;4998124;28;45790;-79
2023/07/08 08:56:30;;;;;;;;;3.00;2.00;;;;;;;;4994645;28;47113;-80
2023/07/08 08:59:14;;;;;;;;;2.33;2.33;;;;;;;;4982870;28;45777;-83
2023/07/08 09:01:39;;;;;;;;;2.33;2.33;;;;;;;;5000726;28;45844;-80
2023/07/08 09:04:07;;;;;;;;;3.00;3.00;;;;;;;;5003048;28;45736;-80
2023/07/08 09:06:34;;;;;;;;;3.00;3.00;;;;;;;;5021275;28;48228;-82
2023/07/08 09:09:16;;;;;;;;;4.00;3.00;;;;;;;;5005924;28;45432;-82
2023/07/08 09:11:54;;;;;;;;;2.67;2.67;;;;;;;;4989441;28;45442;-81
2023/07/08 09:14:22;;;;;;;;;5.00;3.00;;;;;;;;5004311;28;45654;-81
2023/07/08 09:17:06;;;;;;;;;2.67;2.00;;;;;;;;4997266;28;45843;-82
2023/07/08 09:19:34;;;;;;;;;3.33;3.00;;;;;;;;4966270;28;45932;-80
2023/07/08 09:22:06;;;;;;;;;4.33;3.33;;;;;;;;4984416;28;45640;-82
2023/07/08 09:24:43;;;;;;;;;4.00;3.00;;;;;;;;4975509;28;46065;-82
2023/07/08 09:27:09;;;;;;;;;5.00;5.00;;;;;;;;4993243;28;46515;-82
2023/07/08 09:29:34;;;;;;;;;3.33;3.00;;;;;;;;4993652;28;45515;-79
2023/07/08 09:32:11;;;;;;;;;4.00;2.67;;;;;;;;4989519;28;46108;-81
2023/07/08 09:34:40;;;;;;;;;11.33;11.33;;;;;;;;4973358;28;47005;-83
2023/07/08 09:37:19;;;;;;;;;14.33;14.33;;;;;;;;4995451;28;48615;-80
2023/07/08 09:39:44;;;;;;;;;3.33;2.67;;;;;;;;4993283;28;45746;-81
2023/07/08 09:42:09;;;;;;;;;5.00;3.67;;;;;;;;4971206;28;45879;-82
2023/07/08 09:44:38;;;;;;;;;3.00;3.00;;;;;;;;4979277;28;45757;-80
2023/07/08 09:47:17;;;;;;;;;3.33;3.33;;;;;;;;4992045;28;45661;-82
2023/07/08 09:49:44;;;;;;;;;2.00;2.00;;;;;;;;4972082;28;45585;-80
2023/07/08 09:52:12;;;;;;;;;3.67;3.00;;;;;;;;4997848;28;45809;-80
2023/07/08 09:54:37;;;;;;;;;7.00;4.67;;;;;;;;4996647;28;45519;-80
2023/07/08 09:57:05;;;;;;;;;4.00;3.00;;;;;;;;4991416;28;45915;-80
2023/07/08 09:59:38;;;;;;;;;6.00;4.67;;;;;;;;4974436;28;46094;-81
2023/07/08 10:02:17;;;;;;;;;3.00;3.00;;;;;;;;4999071;28;45774;-80
2023/07/08 10:04:43;;;;;;;;;3.00;3.00;;;;;;;;4978087;28;47078;-81
2023/07/08 10:07:12;;;;;;;;;4.67;4.67;;;;;;;;4990545;28;45921;-82
2023/07/08 10:09:38;;;;;;;;;4.00;4.00;;;;;;;;4991745;28;45600;-80
2023/07/08 10:12:04;;;;;;;;;3.67;3.67;;;;;;;;5004499;28;45873;-81
2023/07/08 10:14:37;;;;;;;;;3.33;3.33;;;;;;;;4991001;28;45802;-81
2023/07/08 10:17:02;;;;;;;;;2.67;2.67;;;;;;;;4988459;28;47078;-82
2023/07/08 10:19:27;;;;;;;;;3.33;2.33;;;;;;;;4985413;28;45474;-82
2023/07/08 10:21:56;;;;;;;;;4.00;4.00;;;;;;;;4999348;28;45467;-82
2023/07/08 10:24:21;;;;;;;;;3.00;3.00;;;;;;;;4983380;28;47163;-83
2023/07/08 10:26:49;;;;;;;;;5.00;4.00;;;;;;;;4974791;28;48088;-83
2023/07/08 10:29:22;;;;;;;;;1.00;1.00;;;;;;;;4973895;28;45877;-82
2023/07/08 10:31:53;;;;;;;;;3.33;3.33;;;;;;;;4976019;28;45556;-82
2023/07/08 10:34:28;;;;;;;;;4.00;4.00;;;;;;;;5014833;28;46308;-82
2023/07/08 10:37:06;;;;;;;;;4.00;3.33;;;;;;;;4975310;28;47232;-82
2023/07/08 10:39:46;;;;;;;;;6.33;3.33;;;;;;;;4992303;28;45634;-82
2023/07/08 10:42:12;;;;;;;;;4.00;3.00;;;;;;;;4971013;28;45431;-81
2023/07/08 10:44:37;;;;;;;;;2.67;2.67;;;;;;;;4981559;28;47738;-81
2023/07/08 10:47:21;;;;;;;;;3.00;2.33;;;;;;;;5000803;28;45561;-83
2023/07/08 10:50:03;;;;;;;;;4.67;4.00;;;;;;;;5022684;28;45877;-82
2023/07/08 10:52:54;;;;;;;;;3.00;3.00;;;;;;;;4999445;28;44908;-81
2023/07/08 10:55:29;;;;;;;;;2.33;2.33;;;;;;;;4989092;28;45500;-82
2023/07/08 10:57:54;;;;;;;;;3.67;3.67;;;;;;;;4997162;28;45510;-81
2023/07/08 11:00:43;;;;;;;;;6.00;4.00;;;;;;;;4990298;28;45960;-82
2023/07/08 11:03:29;;;;;;;;;3.00;3.00;;;;;;;;4973029;28;46001;-84
2023/07/08 11:06:00;;;;;;;;;7.00;4.67;;;;;;;;4991569;28;45573;-82
2023/07/08 11:08:27;;;;;;;;;6.00;4.67;;;;;;;;4991002;28;46725;-81
2023/07/08 11:10:53;;;;;;;;;4.00;4.00;;;;;;;;4991244;28;45606;-83
2023/07/08 11:13:19;;;;;;;;;6.67;5.00;;;;;;;;4993026;28;45795;-82
2023/07/08 11:15:57;;;;;;;;;5.33;5.00;;;;;;;;4973031;28;46232;-80
2023/07/08 11:18:25;;;;;;;;;5.00;3.33;;;;;;;;4988384;28;48241;-82
2023/07/08 11:21:04;;;;;;;;;4.00;4.00;;;;;;;;4970893;28;45604;-79
2023/07/08 11:23:40;;;;;;;;;3.33;3.33;;;;;;;;4988958;28;45897;-81
2023/07/08 11:26:05;;;;;;;;;5.00;5.00;;;;;;;;4976264;28;46472;-82
2023/07/08 11:28:30;;;;;;;;;4.33;4.33;;;;;;;;4974560;28;48186;-83
2023/07/08 11:30:58;;;;;;;;;5.00;5.00;;;;;;;;4991893;28;45895;-82
2023/07/08 11:33:25;;;;;;;;;6.00;5.00;;;;;;;;4995278;28;45954;-82
2023/07/08 11:35:52;;;;;;;;;4.75;3.75;;;;;;;;4976823;28;46477;-80
2023/07/08 11:38:19;;;;;;;;;4.67;4.67;;;;;;;;4976350;28;47519;-81
2023/07/08 11:41:04;;;;;;;;;5.00;3.75;;;;;;;;4973782;28;45861;-82
2023/07/08 11:43:42;;;;;;;;;4.50;4.50;;;;;;;;4975660;28;45517;-82
2023/07/08 11:46:13;;;;;;;;;3.50;3.50;;;;;;;;4978887;28;46322;-81
2023/07/08 11:48:42;;;;;;;;;5.00;4.50;;;;;;;;4976526;28;47371;-82
2023/07/08 11:51:08;;;;;;;;;4.25;4.25;;;;;;;;4991925;28;45435;-83
2023/07/08 11:53:35;;;;;;;;;5.00;5.00;;;;;;;;4995330;28;45798;-82
2023/07/08 11:56:04;;;;;;;;;5.00;5.00;;;;;;;;4997389;28;45419;-83
2023/07/08 11:58:31;;;;;;;;;5.25;5.25;;;;;;;;4999834;28;46090;-82
2023/07/08 12:01:03;;;;;;;;;4.50;4.50;;;;;;;;5000446;28;45570;-82
2023/07/08 12:03:36;;;;;;;;;5.75;5.00;;;;;;;;5007583;28;45508;-82
2023/07/08 12:06:06;;;;;;;;;6.50;6.50;;;;;;;;4992965;28;44839;-81
2023/07/08 12:08:37;;;;;;;;;7.25;6.25;;;;;;;;5012807;28;47265;-81
2023/07/08 12:11:03;;;;;;;;;6.33;6.33;;;;;;;;4989243;28;45539;-82
2023/07/08 12:13:30;;;;;;;;;5.50;5.50;;;;;;;;4983207;28;45858;-83
2023/07/08 12:15:55;;;;;;;;;6.50;6.00;;;;;;;;5009897;28;45475;-81
2023/07/08 12:18:31;;;;;;;;;7.00;5.75;;;;;;;;5010919;28;45579;-82
2023/07/08 12:20:58;;;;;;;;;10.00;8.50;;;;;;;;5005835;28;45567;-82
2023/07/08 12:23:25;;;;;;;;;6.50;6.00;;;;;;;;5014163;28;45692;-81
2023/07/08 12:25:51;;;;;;;;;7.25;7.25;;;;;;;;5014563;28;44978;-83
2023/07/08 12:28:16;;;;;;;;;8.00;7.00;;;;;;;;5008958;28;45318;-82
2023/07/08 12:30:42;;;;;;;;;7.25;6.00;;;;;;;;5000772;28;45510;-82
2023/07/08 12:33:15;;;;;;;;;5.00;5.00;;;;;;;;5000339;28;45921;-83
2023/07/08 12:35:41;;;;;;;;;4.50;4.50;;;;;;;;4986634;28;45824;-83
2023/07/08 12:38:23;;;;;;;;;7.00;5.00;;;;;;;;4978184;28;46354;-82
2023/07/08 12:40:49;;;;;;;;;6.25;5.25;;;;;;;;4993885;28;44863;-81
2023/07/08 12:43:16;;;;;;;;;7.00;5.75;;;;;;;;4988256;28;45976;-82
2023/07/08 12:45:41;;;;;;;;;8.75;8.00;;;;;;;;4999311;28;45822;-82
2023/07/08 12:48:08;;;;;;;;;7.00;6.50;;;;;;;;4994291;28;46462;-83
2023/07/08 12:50:33;;;;;;;;;7.75;4.50;;;;;;;;4974910;28;45704;-82
2023/07/08 12:53:03;;;;;;;;;6.00;5.25;;;;;;;;4987729;28;45532;-83
2023/07/08 12:55:28;;;;;;;;;7.00;7.00;;;;;;;;4991077;28;45533;-82
2023/07/08 12:57:54;;;;;;;;;7.50;5.75;;;;;;;;5000748;28;46737;-82
2023/07/08 13:00:27;;;;;;;;;6.33;6.33;;;;;;;;4977921;28;45707;-81
2023/07/08 13:02:58;;;;;;;;;7.50;5.25;;;;;;;;4988526;28;45858;-81
2023/07/08 13:05:24;;;;;;;;;7.75;6.00;;;;;;;;5005721;28;45572;-83
2023/07/08 13:07:50;;;;;;;;;8.75;8.00;;;;;;;;4979229;28;46218;-84
2023/07/08 13:10:18;;;;;;;;;6.25;5.75;;;;;;;;5002280;28;45628;-82
2023/07/08 13:12:44;;;;;;;;;7.00;6.00;;;;;;;;5002122;28;45766;-82
2023/07/08 13:15:13;;;;;;;;;6.25;6.25;;;;;;;;4998958;28;46061;-81
2023/07/08 13:17:40;;;;;;;;;7.00;7.00;;;;;;;;5001337;28;46613;-82
2023/07/08 13:20:09;;;;;;;;;4.75;4.75;;;;;;;;4987146;28;46040;-81
2023/07/08 13:22:34;;;;;;;;;6.75;6.75;;;;;;;;5003001;28;45901;-82
2023/07/08 13:25:01;;;;;;;;;9.50;4.50;;;;;;;;4983004;28;45868;-80
2023/07/08 13:27:26;;;;;;;;;5.00;5.00;;;;;;;;4999011;28;45674;-79
2023/07/08 13:29:55;;;;;;;;;6.00;6.00;;;;;;;;4980738;28;45942;-81
2023/07/08 13:32:29;;;;;;;;;5.50;4.50;;;;;;;;4978675;28;46171;-82
2023/07/08 13:34:54;;;;;;;;;5.00;5.00;;;;;;;;4981747;28;46963;-82
2023/07/08 13:37:24;;;;;;;;;8.00;8.00;;;;;;;;5005763;28;46731;-83
2023/07/08 13:39:49;;;;;;;;;4.75;4.75;;;;;;;;4997001;28;45828;-83
2023/07/08 13:42:22;;;;;;;;;5.75;5.00;;;;;;;;5001742;28;45420;-81
2023/07/08 13:44:48;;;;;;;;;7.25;7.25;;;;;;;;5003445;28;45555;-83
2023/07/08 13:47:22;;;;;;;;;5.75;5.00;;;;;;;;4982088;28;46275;-83
2023/07/08 13:49:48;;;;;;;;;5.75;5.75;;;;;;;;4983461;28;45897;-82
2023/07/08 13:52:20;;;;;;;;;4.50;4.50;;;;;;;;4998923;28;45605;-83
2023/07/08 13:55:02;;;;;;;;;4.00;4.00;;;;;;;;5001602;28;45934;-82
2023/07/08 13:57:36;;;;;;;;;6.25;5.50;;;;;;;;5004227;28;46163;-80
2023/07/08 14:00:01;;;;;;;;;6.00;6.00;;;;;;;;4986916;28;45698;-81
2023/07/08 14:02:29;;;;;;;;;7.50;7.00;;;;;;;;5015506;28;45568;-80
2023/07/08 14:04:56;;;;;;;;;5.00;5.00;;;;;;;;4988725;28;46047;-81
2023/07/08 14:07:26;;;;;;;;;4.25;4.25;;;;;;;;4997699;28;47268;-82
2023/07/08 14:09:52;;;;;;;;;5.00;4.00;;;;;;;;5004560;28;45827;-81
2023/07/08 14:12:17;;;;;;;;;5.00;4.25;;;;;;;;5001143;28;45562;-80
2023/07/08 14:14:46;;;;;;;;;8.00;7.00;;;;;;;;4999784;28;45726;-80
2023/07/08 14:17:14;;;;;;;;;7.25;6.25;;;;;;;;4972308;28;47064;-81
2023/07/08 14:19:39;;;;;;;;;6.50;4.50;;;;;;;;4996690;28;45454;-84
2023/07/08 14:22:14;;;;;;;;;5.00;4.25;;;;;;;;4998792;28;45456;-83
2023/07/08 14:24:42;;;;;;;;;4.75;4.75;;;;;;;;4997928;28;45361;-83
2023/07/08 14:27:12;;;;;;;;;6.50;5.00;;;;;;;;5001411;28;45752;-83
2023/07/08 14:29:43;;;;;;;;;5.75;4.75;;;;;;;;4979169;28;45475;-83
2023/07/08 14:32:18;;;;;;;;;4.00;4.00;;;;;;;;4981732;28;45597;-81
2023/07/08 14:34:48;;;;;;;;;4.00;4.00;;;;;;;;4979667;28;46057;-82
2023/07/08 14:37:14;;;;;;;;;6.50;6.50;;;;;;;;5004649;28;45438;-82
2023/07/08 14:39:39;;;;;;;;;5.00;4.00;;;;;;;;5004426;28;45482;-83
2023/07/08 14:42:05;;;;;;;;;5.00;5.00;;;;;;;;5006558;28;45629;-82